Time;durP1;ratioP1;P1;durP2;ratioP2;P2;SDS_P1;SDS_P2;PMS_P1;PMS_P2;Temp;Humidity;BMP_temperature;BMP_pressure;BME280_temperature;BME280_humidity;BME280_pressure;Samples;Min_cycle;Max_cycle;Signal;HPM_P1;HPM_P2
2022/09/03 00:02:15;;;;;;;4.78;1.90;;;;;;;;;;5056007;28;20044;-75
2022/09/03 00:05:14;;;;;;;5.50;2.08;;;;;;;;;;5056486;28;20029;-75
2022/09/03 00:07:51;;;;;;;5.22;2.00;;;;;;;;;;5054910;28;20421;-76
2022/09/03 00:10:23;;;;;;;2.88;1.80;;;;;;;;;;5054818;28;20025;-74
2022/09/03 00:12:51;;;;;;;4.30;2.35;;;;;;;;;;5056371;28;20036;-74
2022/09/03 00:15:19;;;;;;;3.53;1.92;;;;;;;;;;5055855;28;20036;-75
2022/09/03 00:18:05;;;;;;;5.03;1.92;;;;;;;;;;5055877;28;20029;-75
2022/09/03 00:20:37;;;;;;;5.50;1.77;;;;;;;;;;5055937;28;20099;-75
2022/09/03 00:23:06;;;;;;;8.63;2.03;;;;;;;;;;5055566;28;20078;-75
2022/09/03 00:25:59;;;;;;;3.03;1.73;;;;;;;;;;5056047;28;20029;-75
2022/09/03 00:28:30;;;;;;;2.75;1.70;;;;;;;;;;5055831;28;20036;-74
2022/09/03 00:31:06;;;;;;;7.93;1.90;;;;;;;;;;5056054;28;20021;-76
2022/09/03 00:33:32;;;;;;;3.20;1.88;;;;;;;;;;5056004;28;20021;-76
2022/09/03 00:36:00;;;;;;;2.80;1.73;;;;;;;;;;5055598;28;20036;-75
2022/09/03 00:38:28;;;;;;;7.85;1.70;;;;;;;;;;5055654;28;20100;-75
2022/09/03 00:41:24;;;;;;;2.15;1.52;;;;;;;;;;5055719;28;20087;-75
2022/09/03 00:44:20;;;;;;;2.53;1.55;;;;;;;;;;5055832;28;20158;-75
2022/09/03 00:46:57;;;;;;;3.00;1.63;;;;;;;;;;5054085;28;20021;-75
2022/09/03 00:49:28;;;;;;;3.38;1.58;;;;;;;;;;5054296;28;20037;-75
2022/09/03 00:52:01;;;;;;;2.70;1.40;;;;;;;;;;5054165;28;20423;-75
2022/09/03 00:54:42;;;;;;;3.20;1.57;;;;;;;;;;5055666;28;20146;-75
2022/09/03 00:57:24;;;;;;;2.30;1.42;;;;;;;;;;5053825;28;20029;-75
2022/09/03 01:00:04;;;;;;;2.95;1.50;;;;;;;;;;5053965;28;20028;-75
2022/09/03 01:02:40;;;;;;;2.60;1.52;;;;;;;;;;5054859;28;20025;-75
2022/09/03 01:05:20;;;;;;;2.35;1.50;;;;;;;;;;5053684;28;20190;-75
2022/09/03 01:08:02;;;;;;;3.97;1.50;;;;;;;;;;5055353;28;20047;-75
2022/09/03 01:10:55;;;;;;;5.57;1.73;;;;;;;;;;5055321;28;20131;-75
2022/09/03 01:14:06;;;;;;;2.40;1.42;;;;;;;;;;5055249;28;20032;-75
2022/09/03 01:16:47;;;;;;;3.67;1.38;;;;;;;;;;5054991;28;20075;-75
2022/09/03 01:19:46;;;;;;;7.13;1.48;;;;;;;;;;5055436;28;20521;-75
2022/09/03 01:22:50;;;;;;;2.47;1.38;;;;;;;;;;5053451;28;20029;-75
2022/09/03 01:25:37;;;;;;;2.60;1.42;;;;;;;;;;5054639;28;20063;-75
2022/09/03 01:28:31;;;;;;;2.50;1.65;;;;;;;;;;5054690;28;20025;-74
2022/09/03 01:31:15;;;;;;;4.75;1.25;;;;;;;;;;5054922;28;20029;-74
2022/09/03 01:33:55;;;;;;;2.78;1.40;;;;;;;;;;5054900;28;20086;-75
2022/09/03 01:36:39;;;;;;;3.35;1.38;;;;;;;;;;5054374;28;20021;-75
2022/09/03 01:39:10;;;;;;;2.40;1.30;;;;;;;;;;5054500;28;20036;-75
2022/09/03 01:44:53;;;;;;;3.33;1.50;;;;;;;;;;5054881;28;20036;-76
2022/09/03 01:47:36;;;;;;;3.78;1.50;;;;;;;;;;5053346;28;20394;-75
2022/09/03 01:50:12;;;;;;;2.75;1.33;;;;;;;;;;5054603;28;20478;-75
2022/09/03 01:52:53;;;;;;;3.42;1.40;;;;;;;;;;5054478;28;20104;-75
2022/09/03 01:55:32;;;;;;;3.40;1.70;;;;;;;;;;5054190;28;20033;-74
2022/09/03 01:58:01;;;;;;;1.83;1.30;;;;;;;;;;5054021;28;20025;-75
2022/09/03 02:00:30;;;;;;;3.17;1.40;;;;;;;;;;5054073;28;20041;-75
2022/09/03 02:03:04;;;;;;;2.90;1.50;;;;;;;;;;5052682;28;20038;-74
2022/09/03 02:05:30;;;;;;;3.10;1.40;;;;;;;;;;5054051;28;20025;-74
2022/09/03 02:08:01;;;;;;;3.47;1.50;;;;;;;;;;5052594;28;20036;-74
2022/09/03 02:10:32;;;;;;;4.50;1.60;;;;;;;;;;5052450;28;20131;-74
2022/09/03 02:13:06;;;;;;;2.08;1.40;;;;;;;;;;5053844;28;20021;-76
2022/09/03 02:15:34;;;;;;;2.70;1.50;;;;;;;;;;5052342;28;20036;-74
2022/09/03 02:18:02;;;;;;;3.20;1.38;;;;;;;;;;5052502;28;20036;-74
2022/09/03 02:20:28;;;;;;;3.13;1.60;;;;;;;;;;5053531;28;20039;-75
2022/09/03 02:22:56;;;;;;;2.78;1.38;;;;;;;;;;5053027;28;20490;-75
2022/09/03 02:25:28;;;;;;;2.50;1.38;;;;;;;;;;5052243;28;20028;-74
2022/09/03 02:27:54;;;;;;;2.35;1.38;;;;;;;;;;5053802;28;20029;-75
2022/09/03 02:30:19;;;;;;;2.10;1.35;;;;;;;;;;5053560;28;20103;-74
2022/09/03 02:32:45;;;;;;;2.10;1.45;;;;;;;;;;5053465;28;20024;-75
2022/09/03 02:35:11;;;;;;;4.40;1.63;;;;;;;;;;5053692;28;20040;-74
2022/09/03 02:37:36;;;;;;;2.38;1.40;;;;;;;;;;5052060;28;20021;-75
2022/09/03 02:40:05;;;;;;;2.50;1.50;;;;;;;;;;5053311;28;20040;-75
2022/09/03 02:42:31;;;;;;;5.70;1.58;;;;;;;;;;5053503;28;20250;-75
2022/09/03 02:45:06;;;;;;;4.90;1.70;;;;;;;;;;5053134;28;20371;-74
2022/09/03 02:47:33;;;;;;;1.90;1.30;;;;;;;;;;5053354;28;20012;-74
2022/09/03 02:49:58;;;;;;;2.58;1.50;;;;;;;;;;5051951;28;20028;-74
2022/09/03 02:52:23;;;;;;;3.37;1.50;;;;;;;;;;5053409;28;20024;-74
2022/09/03 02:54:48;;;;;;;2.57;1.63;;;;;;;;;;5053179;28;20253;-76
2022/09/03 02:57:15;;;;;;;2.27;1.40;;;;;;;;;;5053608;28;20281;-76
2022/09/03 02:59:42;;;;;;;3.10;1.50;;;;;;;;;;5053048;28;20273;-76
2022/09/03 03:02:08;;;;;;;2.83;1.40;;;;;;;;;;5053051;28;20029;-75
2022/09/03 03:04:33;;;;;;;3.58;1.77;;;;;;;;;;5053085;28;20079;-75
2022/09/03 03:06:58;;;;;;;5.05;1.48;;;;;;;;;;5052863;28;20033;-74
2022/09/03 03:09:24;;;;;;;4.47;1.40;;;;;;;;;;5051664;28;20100;-75
2022/09/03 03:11:50;;;;;;;3.13;1.55;;;;;;;;;;5053180;28;20021;-74
2022/09/03 03:14:16;;;;;;;2.67;1.50;;;;;;;;;;5052878;28;20025;-75
2022/09/03 03:16:41;;;;;;;2.38;1.50;;;;;;;;;;5051491;28;20017;-75
2022/09/03 03:19:07;;;;;;;2.28;1.35;;;;;;;;;;5053415;28;20029;-75
2022/09/03 03:21:32;;;;;;;5.05;1.77;;;;;;;;;;5052873;28;20414;-75
2022/09/03 03:23:57;;;;;;;2.75;1.50;;;;;;;;;;5052313;28;20029;-74
2022/09/03 03:26:23;;;;;;;3.45;1.50;;;;;;;;;;5056586;28;20039;-74
2022/09/03 03:28:49;;;;;;;4.55;1.70;;;;;;;;;;5056928;28;20032;-74
2022/09/03 03:31:18;;;;;;;2.55;2.03;;;;;;;;;;5056897;28;20033;-75
2022/09/03 03:33:43;;;;;;;2.65;1.50;;;;;;;;;;5056767;28;20393;-75
2022/09/03 03:36:11;;;;;;;4.38;1.60;;;;;;;;;;5056932;28;20107;-74
2022/09/03 03:38:37;;;;;;;2.20;1.50;;;;;;;;;;5055495;28;20017;-75
2022/09/03 03:41:17;;;;;;;4.40;1.38;;;;;;;;;;5056731;28;20033;-75
2022/09/03 03:43:43;;;;;;;1.92;1.50;;;;;;;;;;5056927;28;20120;-75
2022/09/03 03:46:10;;;;;;;2.03;1.48;;;;;;;;;;5056552;28;20024;-75
2022/09/03 03:48:36;;;;;;;4.47;1.70;;;;;;;;;;5056845;28;20029;-75
2022/09/03 03:51:05;;;;;;;2.47;1.42;;;;;;;;;;5056533;28;20104;-75
2022/09/03 03:53:31;;;;;;;2.13;1.40;;;;;;;;;;5055204;28;20044;-75
2022/09/03 03:56:01;;;;;;;3.78;1.40;;;;;;;;;;5056266;28;20474;-75
2022/09/03 03:58:31;;;;;;;3.90;1.75;;;;;;;;;;5055106;28;20020;-75
2022/09/03 04:01:24;;;;;;;6.63;1.73;;;;;;;;;;5056604;28;20040;-75
2022/09/03 04:03:49;;;;;;;3.50;1.70;;;;;;;;;;5056175;28;20045;-75
2022/09/03 04:06:17;;;;;;;2.25;1.60;;;;;;;;;;5054774;28;20025;-75
2022/09/03 04:08:44;;;;;;;5.90;1.70;;;;;;;;;;5056183;28;20171;-75
2022/09/03 04:11:14;;;;;;;2.85;1.67;;;;;;;;;;5056413;28;20020;-75
2022/09/03 04:13:42;;;;;;;2.38;1.40;;;;;;;;;;5056257;28;20093;-75
2022/09/03 04:16:13;;;;;;;2.97;1.67;;;;;;;;;;5055780;28;20448;-75
2022/09/03 04:18:38;;;;;;;2.40;1.50;;;;;;;;;;5056049;28;20024;-75
2022/09/03 04:21:13;;;;;;;3.15;1.65;;;;;;;;;;5056266;28;20044;-76
2022/09/03 04:23:40;;;;;;;3.03;1.95;;;;;;;;;;5054481;28;20075;-74
2022/09/03 04:26:07;;;;;;;2.10;1.63;;;;;;;;;;5055746;28;20025;-74
2022/09/03 04:28:33;;;;;;;4.28;2.03;;;;;;;;;;5056376;28;20596;-75
2022/09/03 04:31:03;;;;;;;2.10;1.38;;;;;;;;;;5054812;28;20039;-75
2022/09/03 04:33:30;;;;;;;6.18;1.92;;;;;;;;;;5055949;28;20424;-74
2022/09/03 04:36:06;;;;;;;4.20;1.77;;;;;;;;;;5053809;28;20480;-75
2022/09/03 04:38:37;;;;;;;3.53;1.63;;;;;;;;;;5055873;28;20033;-74
2022/09/03 04:41:03;;;;;;;3.15;1.80;;;;;;;;;;5055723;28;20036;-74
2022/09/03 04:43:29;;;;;;;4.38;1.75;;;;;;;;;;5055515;28;20025;-75
2022/09/03 04:45:56;;;;;;;3.17;1.67;;;;;;;;;;5055716;28;20024;-75
2022/09/03 04:48:21;;;;;;;2.45;1.75;;;;;;;;;;5055431;28;20021;-74
2022/09/03 04:50:47;;;;;;;2.42;1.52;;;;;;;;;;5055364;28;20025;-73
2022/09/03 04:53:12;;;;;;;2.87;1.63;;;;;;;;;;5055627;28;20083;-74
2022/09/03 04:55:37;;;;;;;3.85;1.70;;;;;;;;;;5055298;28;20250;-74
2022/09/03 04:58:04;;;;;;;4.30;1.52;;;;;;;;;;5054021;28;20115;-75
2022/09/03 05:00:29;;;;;;;3.95;1.70;;;;;;;;;;5055480;28;20028;-75
2022/09/03 05:02:54;;;;;;;3.33;1.60;;;;;;;;;;5055497;28;20025;-75
2022/09/03 05:05:19;;;;;;;8.30;1.65;;;;;;;;;;5054994;28;20035;-75
2022/09/03 05:07:45;;;;;;;2.03;1.42;;;;;;;;;;5053876;28;20440;-75
2022/09/03 05:10:15;;;;;;;2.13;1.58;;;;;;;;;;5055040;28;20052;-75
2022/09/03 05:12:40;;;;;;;2.78;1.48;;;;;;;;;;5055324;28;20112;-75
2022/09/03 05:15:06;;;;;;;2.35;1.60;;;;;;;;;;5054887;28;20056;-75
2022/09/03 05:17:32;;;;;;;2.35;1.42;;;;;;;;;;5054862;28;20035;-75
2022/09/03 05:19:57;;;;;;;2.50;1.65;;;;;;;;;;5054961;28;20021;-75
2022/09/03 05:22:22;;;;;;;3.78;1.92;;;;;;;;;;5053528;28;20027;-74
2022/09/03 05:24:48;;;;;;;2.20;1.65;;;;;;;;;;5054090;28;20035;-74
2022/09/03 05:27:17;;;;;;;4.38;1.67;;;;;;;;;;5054806;28;20544;-74
2022/09/03 05:29:43;;;;;;;3.40;1.50;;;;;;;;;;5053423;28;20044;-75
2022/09/03 05:32:08;;;;;;;2.35;1.70;;;;;;;;;;5054634;28;20096;-75
2022/09/03 05:34:33;;;;;;;5.40;1.90;;;;;;;;;;5053318;28;20601;-73
2022/09/03 05:36:59;;;;;;;3.73;1.80;;;;;;;;;;5054504;28;20509;-74
2022/09/03 05:39:24;;;;;;;6.60;1.90;;;;;;;;;;5054897;28;20767;-75
2022/09/03 05:41:51;;;;;;;3.57;1.80;;;;;;;;;;5054627;28;20801;-74
2022/09/03 05:44:16;;;;;;;1.80;1.50;;;;;;;;;;5053152;28;20270;-74
2022/09/03 05:46:41;;;;;;;2.25;1.65;;;;;;;;;;5053039;28;20074;-75
2022/09/03 05:49:07;;;;;;;9.53;1.80;;;;;;;;;;5053154;28;20390;-75
2022/09/03 05:51:35;;;;;;;3.60;1.83;;;;;;;;;;5054527;28;20674;-74
2022/09/03 05:54:01;;;;;;;2.22;1.75;;;;;;;;;;5054671;28;20033;-74
2022/09/03 05:56:29;;;;;;;4.28;1.92;;;;;;;;;;5052740;28;20398;-75
2022/09/03 05:58:58;;;;;;;3.47;1.67;;;;;;;;;;5052903;28;20021;-74
2022/09/03 06:01:27;;;;;;;2.30;1.70;;;;;;;;;;5054366;28;20052;-75
2022/09/03 06:03:54;;;;;;;2.72;1.73;;;;;;;;;;5054303;28;20378;-74
2022/09/03 06:06:24;;;;;;;7.13;1.92;;;;;;;;;;5053735;28;20025;-74
2022/09/03 06:08:50;;;;;;;4.80;1.90;;;;;;;;;;5053994;28;20055;-74
2022/09/03 06:11:16;;;;;;;2.33;1.60;;;;;;;;;;5053886;28;20024;-75
2022/09/03 06:13:41;;;;;;;4.68;1.70;;;;;;;;;;5053856;28;20025;-75
2022/09/03 06:16:06;;;;;;;3.03;1.90;;;;;;;;;;5052294;28;20025;-75
2022/09/03 06:18:32;;;;;;;2.25;1.80;;;;;;;;;;5053648;28;20025;-75
2022/09/03 06:20:59;;;;;;;3.13;1.80;;;;;;;;;;5053620;28;20021;-75
2022/09/03 06:23:25;;;;;;;2.67;1.60;;;;;;;;;;5053302;28;20020;-74
2022/09/03 06:26:08;;;;;;;3.13;1.70;;;;;;;;;;5053683;28;20123;-74
2022/09/03 06:28:36;;;;;;;2.90;1.65;;;;;;;;;;5053525;28;20021;-75
2022/09/03 06:31:04;;;;;;;1.95;1.40;;;;;;;;;;5053722;28;20079;-75
2022/09/03 06:33:35;;;;;;;2.92;1.20;;;;;;;;;;5053474;28;20118;-75
2022/09/03 06:36:02;;;;;;;2.13;1.40;;;;;;;;;;5053547;28;20104;-76
2022/09/03 06:38:34;;;;;;;3.58;1.70;;;;;;;;;;5053816;28;20029;-74
2022/09/03 06:41:02;;;;;;;4.57;1.50;;;;;;;;;;5053638;28;20055;-76
2022/09/03 06:43:29;;;;;;;2.33;1.50;;;;;;;;;;5051978;28;20490;-75
2022/09/03 06:46:04;;;;;;;3.00;1.50;;;;;;;;;;5053201;28;20111;-75
2022/09/03 06:48:31;;;;;;;2.83;1.40;;;;;;;;;;5053758;28;20430;-75
2022/09/03 06:50:58;;;;;;;3.03;1.50;;;;;;;;;;5053257;28;20478;-74
2022/09/03 06:53:26;;;;;;;3.40;1.60;;;;;;;;;;5051869;28;20505;-75
2022/09/03 06:56:02;;;;;;;4.97;1.52;;;;;;;;;;5052993;28;20063;-76
2022/09/03 06:58:35;;;;;;;1.52;1.30;;;;;;;;;;5051885;28;20029;-75
2022/09/03 07:01:05;;;;;;;1.73;1.30;;;;;;;;;;5051548;28;20029;-77
2022/09/03 07:03:31;;;;;;;3.53;1.35;;;;;;;;;;5053113;28;20045;-76
2022/09/03 07:06:05;;;;;;;1.52;1.20;;;;;;;;;;5051590;28;20433;-75
2022/09/03 07:08:32;;;;;;;4.10;1.50;;;;;;;;;;5053329;28;20393;-76
2022/09/03 07:11:10;;;;;;;3.72;1.50;;;;;;;;;;5052958;28;20029;-76
2022/09/03 07:13:40;;;;;;;4.65;1.73;;;;;;;;;;5053720;28;20094;-75
2022/09/03 07:16:07;;;;;;;5.35;1.50;;;;;;;;;;5053489;28;20025;-75
2022/09/03 07:18:33;;;;;;;3.60;1.38;;;;;;;;;;5051853;28;20029;-75
2022/09/03 07:21:00;;;;;;;2.25;1.38;;;;;;;;;;5052924;28;20021;-76
2022/09/03 07:23:26;;;;;;;2.08;1.33;;;;;;;;;;5051717;28;20025;-75
2022/09/03 07:25:54;;;;;;;3.70;1.30;;;;;;;;;;5053462;28;20429;-76
2022/09/03 07:28:19;;;;;;;5.10;1.27;;;;;;;;;;5052810;28;20024;-76
2022/09/03 07:30:44;;;;;;;3.57;1.20;;;;;;;;;;5051606;28;20027;-76
2022/09/03 07:33:09;;;;;;;1.77;1.30;;;;;;;;;;5052857;28;20256;-76
2022/09/03 07:35:38;;;;;;;2.13;1.10;;;;;;;;;;5052829;28;20258;-75
2022/09/03 07:38:03;;;;;;;2.92;1.30;;;;;;;;;;5053275;28;20610;-76
2022/09/03 07:40:28;;;;;;;3.00;1.60;;;;;;;;;;5053260;28;20104;-77
2022/09/03 07:43:00;;;;;;;3.60;1.27;;;;;;;;;;5052677;28;20289;-76
2022/09/03 07:45:29;;;;;;;2.58;1.45;;;;;;;;;;5051371;28;20021;-76
2022/09/03 07:47:55;;;;;;;3.25;1.23;;;;;;;;;;5052664;28;20505;-76
2022/09/03 07:50:21;;;;;;;1.88;1.30;;;;;;;;;;5052921;28;20024;-75
2022/09/03 07:52:46;;;;;;;3.30;1.33;;;;;;;;;;5051361;28;20398;-76
2022/09/03 07:55:12;;;;;;;6.85;1.40;;;;;;;;;;5051279;28;20021;-76
2022/09/03 07:57:38;;;;;;;3.88;1.58;;;;;;;;;;5052543;28;20033;-76
2022/09/03 08:00:07;;;;;;;2.90;1.50;;;;;;;;;;5052453;28;20082;-76
2022/09/03 08:02:32;;;;;;;1.85;1.30;;;;;;;;;;5051084;28;20029;-76
2022/09/03 08:04:57;;;;;;;2.85;1.40;;;;;;;;;;5052251;28;20028;-77
2022/09/03 08:07:22;;;;;;;2.77;1.30;;;;;;;;;;5051182;28;20041;-76
2022/09/03 08:09:48;;;;;;;3.63;1.27;;;;;;;;;;5052788;28;20400;-76
2022/09/03 08:12:13;;;;;;;2.67;1.30;;;;;;;;;;5054550;28;20286;-76
2022/09/03 08:14:39;;;;;;;2.07;1.10;;;;;;;;;;5056005;28;20029;-76
2022/09/03 08:17:04;;;;;;;3.30;1.33;;;;;;;;;;5055954;28;20278;-76
2022/09/03 08:19:29;;;;;;;4.85;1.27;;;;;;;;;;5056159;28;20303;-74
2022/09/03 08:21:54;;;;;;;2.17;1.30;;;;;;;;;;5054604;28;20465;-76
2022/09/03 08:24:23;;;;;;;2.43;1.30;;;;;;;;;;5055637;28;20684;-77
2022/09/03 08:26:48;;;;;;;2.63;1.20;;;;;;;;;;5055995;28;20333;-77
2022/09/03 08:29:14;;;;;;;6.38;1.73;;;;;;;;;;5055863;28;20442;-77
2022/09/03 08:31:39;;;;;;;5.43;1.40;;;;;;;;;;5056105;28;20040;-76
2022/09/03 08:34:06;;;;;;;3.22;1.27;;;;;;;;;;5056226;28;20264;-77
2022/09/03 08:36:34;;;;;;;4.88;1.40;;;;;;;;;;5055535;28;20021;-76
2022/09/03 08:39:06;;;;;;;3.83;1.13;;;;;;;;;;5055882;28;20036;-77
2022/09/03 08:41:57;;;;;;;2.28;1.40;;;;;;;;;;5055714;28;20021;-76
2022/09/03 08:44:59;;;;;;;3.00;1.20;;;;;;;;;;5056001;28;20063;-76
2022/09/03 08:47:32;;;;;;;2.65;1.30;;;;;;;;;;5055166;28;20028;-76
2022/09/03 08:50:01;;;;;;;;;;;;;;;;;;5056136;28;20025;-76
2022/09/03 08:52:40;;;;;;;2.03;1.20;;;;;;;;;;5054074;28;19943;-75
2022/09/03 08:55:16;;;;;;;3.13;1.25;;;;;;;;;;5054000;28;20119;-77
2022/09/03 08:57:49;;;;;;;2.30;1.30;;;;;;;;;;5056094;28;20060;-77
2022/09/03 09:00:16;;;;;;;2.28;1.60;;;;;;;;;;5055343;28;20079;-76
2022/09/03 09:02:56;;;;;;;6.30;1.50;;;;;;;;;;5055142;28;20040;-75
2022/09/03 09:05:59;;;;;;;4.57;1.30;;;;;;;;;;5055258;28;20063;-76
2022/09/03 09:08:42;;;;;;;4.30;1.25;;;;;;;;;;5055291;28;20451;-76
2022/09/03 09:11:13;;;;;;;5.37;1.30;;;;;;;;;;5055209;28;20479;-75
2022/09/03 09:14:12;;;;;;;4.40;1.30;;;;;;;;;;5055657;28;20489;-76
2022/09/03 09:17:00;;;;;;;3.33;1.23;;;;;;;;;;5055167;28;20094;-76
2022/09/03 09:19:50;;;;;;;3.33;1.60;;;;;;;;;;5053845;28;20024;-75
2022/09/03 09:22:30;;;;;;;5.18;1.50;;;;;;;;;;5055099;28;20108;-77
2022/09/03 09:25:00;;;;;;;2.70;1.20;;;;;;;;;;5053752;28;20025;-74
2022/09/03 09:27:27;;;;;;;2.50;1.30;;;;;;;;;;5055242;28;20025;-75
2022/09/03 09:29:58;;;;;;;2.08;1.38;;;;;;;;;;5055280;28;20021;-74
2022/09/03 09:32:23;;;;;;;2.58;1.23;;;;;;;;;;5054658;28;20049;-74
2022/09/03 09:34:50;;;;;;;3.20;1.27;;;;;;;;;;5054877;28;20040;-74
2022/09/03 09:37:16;;;;;;;2.35;1.23;;;;;;;;;;5054676;28;20285;-74
2022/09/03 09:39:59;;;;;;;5.45;1.40;;;;;;;;;;5054275;28;20029;-76
2022/09/03 09:42:25;;;;;;;3.88;1.27;;;;;;;;;;5054444;28;20024;-74
2022/09/03 09:44:51;;;;;;;3.10;1.30;;;;;;;;;;5054208;28;20099;-74
2022/09/03 09:47:30;;;;;;;3.83;1.25;;;;;;;;;;5054422;28;20020;-74
2022/09/03 09:49:58;;;;;;;2.10;1.27;;;;;;;;;;5054606;28;20429;-75
2022/09/03 09:52:27;;;;;;;2.13;1.30;;;;;;;;;;5054258;28;20504;-74
2022/09/03 09:55:06;;;;;;;3.40;1.30;;;;;;;;;;5054320;28;20033;-75
2022/09/03 09:57:33;;;;;;;2.38;1.50;;;;;;;;;;5054032;28;20029;-75
2022/09/03 10:00:15;;;;;;;2.55;1.45;;;;;;;;;;5052764;28;20071;-75
2022/09/03 10:02:53;;;;;;;3.53;1.50;;;;;;;;;;5052993;28;20075;-76
2022/09/03 10:05:25;;;;;;;4.57;1.20;;;;;;;;;;5054331;28;20025;-75
2022/09/03 10:08:03;;;;;;;5.80;1.60;;;;;;;;;;5053966;28;20017;-75
2022/09/03 10:10:33;;;;;;;2.50;1.30;;;;;;;;;;5054122;28;20029;-75
2022/09/03 10:13:42;;;;;;;1.92;1.25;;;;;;;;;;5054160;28;20025;-74
2022/09/03 10:16:20;;;;;;;3.13;1.40;;;;;;;;;;5042589;28;20044;-74
2022/09/03 10:18:54;;;;;;;2.63;1.60;;;;;;;;;;5053876;28;20029;-76
2022/09/03 10:21:35;;;;;;;6.20;1.30;;;;;;;;;;5054057;28;20134;-75
2022/09/03 10:24:15;;;;;;;2.50;1.00;;;;;;;;;;5052338;28;20025;-76
2022/09/03 10:26:44;;;;;;;4.65;1.10;;;;;;;;;;5052435;28;20031;-76
2022/09/03 10:29:10;;;;;;;5.20;1.30;;;;;;;;;;5052159;28;20031;-75
2022/09/03 10:31:42;;;;;;;2.38;1.10;;;;;;;;;;5052173;28;20031;-76
2022/09/03 10:34:37;;;;;;;2.67;1.40;;;;;;;;;;5052761;28;20028;-75
2022/09/03 10:37:17;;;;;;;3.42;1.13;;;;;;;;;;5052032;28;20025;-75
2022/09/03 10:39:55;;;;;;;3.03;1.40;;;;;;;;;;5052506;28;20449;-78
2022/09/03 10:42:47;;;;;;;1.63;1.10;;;;;;;;;;5053614;28;20478;-76
2022/09/03 10:45:31;;;;;;;2.55;1.20;;;;;;;;;;5053341;28;20398;-75
2022/09/03 10:48:27;;;;;;;7.93;1.27;;;;;;;;;;5053403;28;20527;-76
2022/09/03 10:51:01;;;;;;;2.80;1.23;;;;;;;;;;5053660;28;20056;-75
2022/09/03 10:53:50;;;;;;;2.28;1.50;;;;;;;;;;5053620;28;20158;-76
2022/09/03 10:56:23;;;;;;;1.70;1.20;;;;;;;;;;5053092;28;20032;-76
2022/09/03 10:59:17;;;;;;;1.63;1.20;;;;;;;;;;5053304;28;20057;-76
2022/09/03 11:01:51;;;;;;;2.63;1.20;;;;;;;;;;5051848;28;20025;-75
2022/09/03 11:04:19;;;;;;;1.60;1.10;;;;;;;;;;5053218;28;20056;-76
2022/09/03 11:07:00;;;;;;;3.97;1.40;;;;;;;;;;5052876;28;20032;-75
2022/09/03 11:09:32;;;;;;;1.77;1.30;;;;;;;;;;5051733;28;20494;-76
2022/09/03 11:12:04;;;;;;;2.50;1.40;;;;;;;;;;5053033;28;20040;-76
2022/09/03 11:14:37;;;;;;;2.85;1.20;;;;;;;;;;5051726;28;20036;-75
2022/09/03 11:17:08;;;;;;;4.70;1.73;;;;;;;;;;5052879;28;20028;-75
2022/09/03 11:19:39;;;;;;;2.40;1.20;;;;;;;;;;5053143;28;20142;-76
2022/09/03 11:22:06;;;;;;;2.78;1.20;;;;;;;;;;5051665;28;20036;-74
2022/09/03 11:24:33;;;;;;;3.03;1.30;;;;;;;;;;5052737;28;20031;-76
2022/09/03 11:27:06;;;;;;;1.50;1.20;;;;;;;;;;5052737;28;20013;-75
2022/09/03 11:30:14;;;;;;;6.23;1.40;;;;;;;;;;5053053;28;20027;-74
2022/09/03 11:32:45;;;;;;;2.53;1.35;;;;;;;;;;5052301;28;20040;-74
2022/09/03 11:35:23;;;;;;;3.20;1.27;;;;;;;;;;5051219;28;20039;-75
2022/09/03 11:37:58;;;;;;;2.70;1.20;;;;;;;;;;5052688;28;20025;-75
2022/09/03 11:40:34;;;;;;;2.53;1.40;;;;;;;;;;5051285;28;20021;-75
2022/09/03 11:43:26;;;;;;;2.50;1.48;;;;;;;;;;5051002;28;20115;-75
2022/09/03 11:46:12;;;;;;;4.13;1.42;;;;;;;;;;5053059;28;20047;-75
2022/09/03 11:48:46;;;;;;;2.47;1.35;;;;;;;;;;5055309;28;20098;-75
2022/09/03 11:51:29;;;;;;;2.75;1.10;;;;;;;;;;5056815;28;20035;-75
2022/09/03 11:53:58;;;;;;;2.03;1.25;;;;;;;;;;5056569;28;20032;-76
2022/09/03 11:56:23;;;;;;;1.95;1.10;;;;;;;;;;5056362;28;20040;-75
2022/09/03 11:59:02;;;;;;;2.80;1.30;;;;;;;;;;5056639;28;20036;-76
2022/09/03 12:01:28;;;;;;;2.65;1.10;;;;;;;;;;5056575;28;20113;-75
2022/09/03 12:04:03;;;;;;;2.83;1.20;;;;;;;;;;5056299;28;20487;-75
2022/09/03 12:06:43;;;;;;;1.20;1.00;;;;;;;;;;5055971;28;20509;-76
2022/09/03 12:09:28;;;;;;;3.38;1.23;;;;;;;;;;5056503;28;20028;-75
2022/09/03 12:12:30;;;;;;;5.53;1.40;;;;;;;;;;5054912;28;20029;-75
2022/09/03 12:15:13;;;;;;;3.13;1.30;;;;;;;;;;5056651;28;20033;-75
2022/09/03 12:18:17;;;;;;;2.88;1.33;;;;;;;;;;5055903;28;20039;-74
2022/09/03 12:20:39;;;;;;;1.77;1.20;;;;;;;;;;5055937;28;20051;-76
2022/09/03 12:23:06;;;;;;;1.83;1.30;;;;;;;;;;5056200;28;20055;-76
2022/09/03 12:25:31;;;;;;;4.95;1.25;;;;;;;;;;5055769;28;20028;-76
2022/09/03 12:28:02;;;;;;;1.90;1.40;;;;;;;;;;5056064;28;20021;-75
2022/09/03 12:30:29;;;;;;;2.55;1.20;;;;;;;;;;5055876;28;20036;-75
2022/09/03 12:33:05;;;;;;;1.80;1.20;;;;;;;;;;5054540;28;20032;-76
2022/09/03 12:35:31;;;;;;;4.53;1.35;;;;;;;;;;5054375;28;20482;-75
2022/09/03 12:37:56;;;;;;;3.63;1.17;;;;;;;;;;5054439;28;20032;-75
2022/09/03 12:40:25;;;;;;;1.98;1.15;;;;;;;;;;5055712;28;20040;-75
2022/09/03 12:42:51;;;;;;;5.20;1.30;;;;;;;;;;5055618;28;20096;-75
2022/09/03 12:45:25;;;;;;;4.03;1.40;;;;;;;;;;5055813;28;20032;-75
2022/09/03 12:47:52;;;;;;;1.95;1.35;;;;;;;;;;5055145;28;20437;-75
2022/09/03 12:50:20;;;;;;;4.88;1.30;;;;;;;;;;5059315;28;20020;-75
2022/09/03 12:52:51;;;;;;;4.35;1.30;;;;;;;;;;5076597;28;20072;-74
2022/09/03 12:55:39;;;;;;;2.00;1.38;;;;;;;;;;5077094;28;20005;-74
2022/09/03 12:58:16;;;;;;;2.15;1.17;;;;;;;;;;5064858;28;20033;-76
2022/09/03 13:00:51;;;;;;;1.80;1.30;;;;;;;;;;5056671;28;20021;-75
2022/09/03 13:03:53;;;;;;;3.33;1.15;;;;;;;;;;5054493;28;20554;-76
2022/09/03 13:06:21;;;;;;;3.63;1.10;;;;;;;;;;5054866;28;20044;-76
2022/09/03 13:09:03;;;;;;;3.25;1.45;;;;;;;;;;5054556;28;20021;-75
2022/09/03 13:11:33;;;;;;;1.77;1.10;;;;;;;;;;5057398;28;20029;-75
2022/09/03 13:14:07;;;;;;;2.25;1.20;;;;;;;;;;5057856;28;20025;-76
2022/09/03 13:16:44;;;;;;;3.42;1.23;;;;;;;;;;5057144;28;20079;-76
2022/09/03 13:19:47;;;;;;;3.00;1.30;;;;;;;;;;5054564;28;20028;-77
2022/09/03 13:22:44;;;;;;;2.15;1.00;;;;;;;;;;5054149;28;20029;-75
2022/09/03 13:25:32;;;;;;;4.50;1.20;;;;;;;;;;5054058;28;20037;-76
2022/09/03 13:28:33;;;;;;;2.35;1.23;;;;;;;;;;5054809;28;20021;-77
2022/09/03 13:31:29;;;;;;;1.77;1.30;;;;;;;;;;5045276;28;20098;-74
2022/09/03 13:34:06;;;;;;;2.78;1.50;;;;;;;;;;5054962;28;20083;-75
2022/09/03 13:36:42;;;;;;;4.10;1.25;;;;;;;;;;5055763;28;20029;-75
2022/09/03 13:39:23;;;;;;;2.83;1.27;;;;;;;;;;5055935;28;20052;-75
2022/09/03 13:41:56;;;;;;;4.10;1.50;;;;;;;;;;5054076;28;20032;-75
2022/09/03 13:44:48;;;;;;;2.63;1.52;;;;;;;;;;5054449;28;20031;-75
2022/09/03 13:47:28;;;;;;;2.78;1.52;;;;;;;;;;5054580;28;20402;-75
2022/09/03 13:50:22;;;;;;;2.70;1.40;;;;;;;;;;5053368;28;20039;-75
2022/09/03 13:52:58;;;;;;;2.22;1.35;;;;;;;;;;5055185;28;20032;-75
2022/09/03 13:55:36;;;;;;;2.78;1.23;;;;;;;;;;5054661;28;20075;-76
2022/09/03 13:58:13;;;;;;;4.38;1.20;;;;;;;;;;5054676;28;20037;-75
2022/09/03 14:00:46;;;;;;;1.77;1.23;;;;;;;;;;5055489;28;20031;-76
2022/09/03 14:03:29;;;;;;;3.13;1.13;;;;;;;;;;5054470;28;20025;-77
2022/09/03 14:06:12;;;;;;;6.13;1.20;;;;;;;;;;5053944;28;20029;-77
2022/09/03 14:08:59;;;;;;;2.50;1.50;;;;;;;;;;5053798;28;20462;-77
2022/09/03 14:11:48;;;;;;;2.70;1.30;;;;;;;;;;5054489;28;20107;-77
2022/09/03 14:14:51;;;;;;;7.82;3.67;;;;;;;;;;5054447;28;20036;-77
2022/09/03 14:17:45;;;;;;;5.10;1.50;;;;;;;;;;5053794;28;20079;-77
2022/09/03 14:20:17;;;;;;;3.42;1.17;;;;;;;;;;5053756;28;20087;-76
2022/09/03 14:23:03;;;;;;;3.22;1.20;;;;;;;;;;5052385;28;20552;-76
2022/09/03 14:25:28;;;;;;;1.70;1.30;;;;;;;;;;5053803;28;20033;-77
2022/09/03 14:28:11;;;;;;;3.60;1.30;;;;;;;;;;5053868;28;20032;-77
2022/09/03 14:30:46;;;;;;;3.22;1.20;;;;;;;;;;5053423;28;20028;-77
2022/09/03 14:33:27;;;;;;;2.25;1.13;;;;;;;;;;5053561;28;20046;-77
2022/09/03 14:36:00;;;;;;;4.32;1.48;;;;;;;;;;5051938;28;20060;-77
2022/09/03 14:38:39;;;;;;;1.73;1.20;;;;;;;;;;5054062;28;20025;-76
2022/09/03 14:41:05;;;;;;;2.13;1.30;;;;;;;;;;5053846;28;20333;-76
2022/09/03 14:44:12;;;;;;;5.03;1.48;;;;;;;;;;5053628;28;20116;-77
2022/09/03 14:47:03;;;;;;;1.77;1.15;;;;;;;;;;5053174;28;20017;-76
2022/09/03 14:49:57;;;;;;;2.47;1.40;;;;;;;;;;5053911;28;20063;-78
2022/09/03 14:52:44;;;;;;;2.17;1.10;;;;;;;;;;5054338;28;20025;-77
2022/09/03 14:55:31;;;;;;;3.65;1.23;;;;;;;;;;5054602;28;20528;-77
2022/09/03 14:58:10;;;;;;;4.28;1.40;;;;;;;;;;5053974;28;20078;-76
2022/09/03 15:00:51;;;;;;;3.22;1.20;;;;;;;;;;5052917;28;20028;-76
2022/09/03 15:03:35;;;;;;;4.07;1.17;;;;;;;;;;5052978;28;20044;-76
2022/09/03 15:06:15;;;;;;;;;;;;;;;;;;5053591;28;20035;-77
2022/09/03 15:09:11;;;;;;;1.50;1.20;;;;;;;;;;5053658;28;20366;-76
2022/09/03 15:11:47;;;;;;;2.33;1.58;;;;;;;;;;5053012;28;20393;-77
2022/09/03 15:14:19;;;;;;;2.35;1.15;;;;;;;;;;5053003;28;20025;-77
2022/09/03 15:17:25;;;;;;;1.70;1.20;;;;;;;;;;5052776;28;20033;-74
2022/09/03 15:20:04;;;;;;;2.13;1.20;;;;;;;;;;5053199;28;20410;-76
2022/09/03 15:23:02;;;;;;;4.50;1.60;;;;;;;;;;5059874;28;20106;-76
2022/09/03 15:26:02;;;;;;;1.75;1.20;;;;;;;;;;5059379;28;20052;-76
2022/09/03 15:28:42;;;;;;;2.35;1.20;;;;;;;;;;5058255;28;20112;-77